Terminal Aerodrome Forecast
Issued by NWS Brownsville, TX

Home | Current Version | Previous Version | Text Only | Print | Product List | Glossary On
Versions: 1 2 3 4 5 6 7 8 9 10 11 12 13
307
FTUS44 KBRO 242333
TAFHRL
TAF
KHRL 242333Z 2500/2524 15010KT P6SM SKC
     FM250400 17005KT P6SM SKC
     FM251500 18014G20KT P6SM SKC
     FM252300 18011KT P6SM SKC=

USA.gov is the U.S. government's official web portal to all federal, state and local government web resources and services.